Time;durP1;ratioP1;P1;durP2;ratioP2;P2;SDS_P1;SDS_P2;PMS_P1;PMS_P2;Temp;Humidity;BMP_temperature;BMP_pressure;BME280_temperature;BME280_humidity;BME280_pressure;Samples;Min_cycle;Max_cycle;Signal;HPM_P1;HPM_P2
2023/05/01 00:00:49;;;;;;;;;;;;;;;11.05;100.00;101725.69;4960382;28;19926;-73
2023/05/01 00:03:16;;;;;;;;;;;;;;;11.05;100.00;101728.38;4994808;28;20208;-73
2023/05/01 00:05:42;;;;;;;;;;;;;;;11.03;100.00;101722.25;4984320;28;20048;-73
2023/05/01 00:08:07;;;;;;;;;;;;;;;11.03;100.00;101719.56;4994038;28;20399;-73
2023/05/01 00:10:34;;;;;;;;;;;;;;;11.08;100.00;101718.28;4983560;28;19932;-73
2023/05/01 00:12:59;;;;;;;;;;;;;;;11.09;100.00;101711.94;4988079;28;19928;-73
2023/05/01 00:15:24;;;;;;;;;;;;;;;11.14;100.00;101708.09;4995614;28;19921;-73
2023/05/01 00:17:50;;;;;;;;;;;;;;;11.05;100.00;101691.63;4997633;28;19929;-73
2023/05/01 00:20:15;;;;;;;;;;;;;;;11.10;100.00;101692.19;4981241;28;19933;-73
2023/05/01 00:22:41;;;;;;;;;;;;;;;11.09;100.00;101692.28;4988212;28;19922;-73
2023/05/01 00:25:06;;;;;;;;;;;;;;;11.08;100.00;101686.03;4982979;28;19922;-73
2023/05/01 00:27:32;;;;;;;;;;;;;;;11.11;100.00;101682.31;4986368;28;20432;-73
2023/05/01 00:29:57;;;;;;;;;;;;;;;11.16;100.00;101685.53;4977020;28;19921;-73
2023/05/01 00:32:22;;;;;;;;;;;;;;;11.16;100.00;101679.28;4987249;28;19921;-73
2023/05/01 00:34:48;;;;;;;;;;;;;;;11.10;100.00;101678.75;4983815;28;20365;-73
2023/05/01 00:37:13;;;;;;;;;;;;;;;11.12;100.00;101672.41;4993893;28;20687;-73
2023/05/01 00:39:38;;;;;;;;;;;;;;;11.10;100.00;101670.69;4980567;28;19921;-73
2023/05/01 00:42:03;;;;;;;;;;;;;;;11.15;100.00;101666.81;4978857;28;20012;-73
2023/05/01 00:44:29;;;;;;;;;;;;;;;11.16;100.00;101669.41;4974554;28;20497;-73
2023/05/01 00:46:57;;;;;;;;;;;;;;;11.14;100.00;101657.88;4977462;28;19922;-73
2023/05/01 00:49:22;;;;;;;;;;;;;;;11.13;100.00;101658.00;4977758;28;20384;-73
2023/05/01 00:51:48;;;;;;;;;;;;;;;11.08;100.00;101652.94;4983146;28;19991;-73
2023/05/01 00:54:13;;;;;;;;;;;;;;;11.07;100.00;101654.75;4983253;28;20063;-73
2023/05/01 00:56:38;;;;;;;;;;;;;;;11.07;100.00;101645.84;4982827;28;20388;-73
2023/05/01 00:59:04;;;;;;;;;;;;;;;11.12;100.00;101649.09;4958158;28;20400;-73
2023/05/01 01:01:29;;;;;;;;;;;;;;;11.11;100.00;101650.06;4996398;28;20684;-73
2023/05/01 01:03:55;;;;;;;;;;;;;;;11.11;100.00;101636.63;4987639;28;19968;-73
2023/05/01 01:06:31;;;;;;;;;;;;;;;11.16;99.49;101637.13;4995637;28;20450;-72
2023/05/01 01:08:57;;;;;;;;;;;;;;;11.10;100.00;101633.06;4992708;28;19922;-73
2023/05/01 01:11:24;;;;;;;;;;;;;;;11.05;98.08;101640.56;4984057;28;19921;-73
2023/05/01 01:14:08;;;;;;;;;;;;;;;11.09;99.66;101634.00;4985064;28;19950;-73
2023/05/01 01:16:43;;;;;;;;;;;;;;;11.11;100.00;101633.94;4985471;28;20483;-73
2023/05/01 01:19:18;;;;;;;;;;;;;;;11.10;100.00;101627.69;4988425;28;19925;-73
2023/05/01 01:21:43;;;;;;;;;;;;;;;11.14;100.00;101627.47;4989625;28;19932;-72
2023/05/01 01:24:18;;;;;;;;;;;;;;;11.14;100.00;101619.41;4994381;28;19922;-73
2023/05/01 01:27:01;;;;;;;;;;;;;;;11.09;100.00;101615.19;4977952;28;19925;-73
2023/05/01 01:29:35;;;;;;;;;;;;;;;11.07;100.00;101610.91;4986645;28;20025;-73
2023/05/01 01:32:06;;;;;;;;;;;;;;;11.06;100.00;101609.19;4979336;28;20472;-73
2023/05/01 01:34:32;;;;;;;;;;;;;;;11.08;100.00;101607.25;4983680;28;20381;-73
2023/05/01 01:37:05;;;;;;;;;;;;;;;11.06;100.00;101601.97;4994865;28;20241;-73
2023/05/01 01:39:39;;;;;;;;;;;;;;;11.07;100.00;101601.00;4981361;28;19921;-73
2023/05/01 01:42:08;;;;;;;;;;;;;;;11.06;100.00;101598.44;4993232;28;19930;-73
2023/05/01 01:44:53;;;;;;;;;;;;;;;11.09;100.00;101592.84;4990022;28;20084;-73
2023/05/01 01:47:19;;;;;;;;;;;;;;;11.00;100.00;101583.56;4992086;28;19921;-73
2023/05/01 01:49:46;;;;;;;;;;;;;;;11.04;98.66;101578.88;4992174;28;19928;-73
2023/05/01 01:52:12;;;;;;;;;;;;;;;11.05;96.51;101584.13;4993093;28;19922;-73
2023/05/01 01:54:39;;;;;;;;;;;;;;;11.04;100.00;101578.88;4977702;28;19922;-73
2023/05/01 01:57:06;;;;;;;;;;;;;;;10.97;98.98;101581.13;4975332;28;19965;-73
2023/05/01 01:59:33;;;;;;;;;;;;;;;10.98;100.00;101569.41;4983224;28;19921;-73
2023/05/01 02:01:58;;;;;;;;;;;;;;;10.88;100.00;101558.41;4963615;28;19925;-73
2023/05/01 02:04:24;;;;;;;;;;;;;;;10.88;99.17;101573.66;4994381;28;19926;-73
2023/05/01 02:06:50;;;;;;;;;;;;;;;10.96;99.82;101565.97;4983774;28;19921;-73
2023/05/01 02:09:15;;;;;;;;;;;;;;;10.97;100.00;101565.00;4993210;28;20300;-73
2023/05/01 02:11:41;;;;;;;;;;;;;;;10.96;100.00;101565.97;4980054;28;19921;-73
2023/05/01 02:14:07;;;;;;;;;;;;;;;10.97;99.76;101567.69;4977157;28;19960;-73
2023/05/01 02:16:33;;;;;;;;;;;;;;;10.92;100.00;101562.59;4994468;28;20358;-73
2023/05/01 02:18:58;;;;;;;;;;;;;;;10.91;100.00;101555.50;4992835;28;20495;-73
2023/05/01 02:21:23;;;;;;;;;;;;;;;10.92;99.25;101559.91;4989259;28;20416;-73
2023/05/01 02:23:48;;;;;;;;;;;;;;;10.93;98.03;101558.09;4991843;28;20247;-73
2023/05/01 02:26:15;;;;;;;;;;;;;;;10.85;100.00;101545.19;4987784;28;20338;-73
2023/05/01 02:28:41;;;;;;;;;;;;;;;10.92;100.00;101551.00;4985941;28;20443;-73
2023/05/01 02:31:06;;;;;;;;;;;;;;;10.91;100.00;101554.66;4982299;28;19922;-73
2023/05/01 02:33:31;;;;;;;;;;;;;;;10.88;100.00;101550.34;4982823;28;20284;-73
2023/05/01 02:35:56;;;;;;;;;;;;;;;10.85;100.00;101542.50;4978384;28;20466;-72
2023/05/01 02:38:21;;;;;;;;;;;;;;;10.77;100.00;101539.47;4976660;28;20340;-73
2023/05/01 02:40:49;;;;;;;;;;;;;;;10.75;100.00;101536.88;4980913;28;20393;-73
2023/05/01 02:43:15;;;;;;;;;;;;;;;10.70;100.00;101541.72;4989730;28;19948;-73
2023/05/01 02:45:40;;;;;;;;;;;;;;;10.70;100.00;101536.34;4978710;28;20373;-73
2023/05/01 02:48:06;;;;;;;;;;;;;;;10.68;100.00;101526.66;4979042;28;20004;-73
2023/05/01 02:50:32;;;;;;;;;;;;;;;10.68;100.00;101529.34;4990895;28;20347;-73
2023/05/01 02:52:57;;;;;;;;;;;;;;;10.64;100.00;101528.69;4994281;28;19961;-73
2023/05/01 02:55:22;;;;;;;;;;;;;;;10.63;100.00;101519.75;4993024;28;20016;-73
2023/05/01 02:57:49;;;;;;;;;;;;;;;10.63;100.00;101517.06;4989688;28;20383;-73
2023/05/01 03:00:14;;;;;;;;;;;;;;;10.60;100.00;101503.00;4992317;28;19948;-73
2023/05/01 03:02:39;;;;;;;;;;;;;;;10.55;100.00;101510.50;4992048;28;20336;-73
2023/05/01 03:05:05;;;;;;;;;;;;;;;10.55;100.00;101507.81;4975814;28;19979;-73
2023/05/01 03:07:33;;;;;;;;;;;;;;;10.43;100.00;101505.00;4989402;28;19921;-73
2023/05/01 03:09:59;;;;;;;;;;;;;;;10.48;100.00;101504.69;4982156;28;19921;-72
2023/05/01 03:12:24;;;;;;;;;;;;;;;10.45;100.00;101500.41;4989092;28;20452;-72
2023/05/01 03:14:50;;;;;;;;;;;;;;;10.41;100.00;101506.06;4979377;28;19953;-72
2023/05/01 03:17:15;;;;;;;;;;;;;;;10.41;100.00;101498.88;4988565;28;20041;-73
2023/05/01 03:19:41;;;;;;;;;;;;;;;10.44;100.00;101503.16;4982438;28;19921;-72
2023/05/01 03:22:06;;;;;;;;;;;;;;;10.40;100.00;101496.28;4988332;28;20379;-73
2023/05/01 03:24:31;;;;;;;;;;;;;;;10.34;100.00;101498.38;4984091;28;19921;-72
2023/05/01 03:26:57;;;;;;;;;;;;;;;10.27;100.00;101499.75;4982433;28;19922;-72
2023/05/01 03:29:22;;;;;;;;;;;;;;;10.23;100.00;101500.03;4978336;28;19922;-73
2023/05/01 03:31:47;;;;;;;;;;;;;;;10.22;100.00;101491.16;4985578;28;20424;-72
2023/05/01 03:34:12;;;;;;;;;;;;;;;10.21;100.00;101487.59;4980679;28;20373;-72
2023/05/01 03:36:37;;;;;;;;;;;;;;;10.21;100.00;101484.91;4984935;28;20386;-72
2023/05/01 03:39:03;;;;;;;;;;;;;;;10.04;100.00;101463.69;4982325;28;19943;-72
2023/05/01 03:41:28;;;;;;;;;;;;;;;10.08;100.00;101484.00;4986286;28;19942;-73
2023/05/01 03:43:54;;;;;;;;;;;;;;;10.04;100.00;101478.00;4982634;28;19968;-73
2023/05/01 03:46:19;;;;;;;;;;;;;;;10.04;100.00;101480.69;4983829;28;20006;-72
2023/05/01 03:48:44;;;;;;;;;;;;;;;10.04;100.00;101475.31;4989307;28;19928;-73
2023/05/01 03:51:09;;;;;;;;;;;;;;;10.02;100.00;101471.88;4985672;28;19928;-73
2023/05/01 03:53:35;;;;;;;;;;;;;;;10.04;100.00;101477.13;4981043;28;19984;-73
2023/05/01 03:56:03;;;;;;;;;;;;;;;9.97;100.00;101471.28;4985238;28;20029;-73
2023/05/01 03:58:28;;;;;;;;;;;;;;;9.93;100.00;101471.59;4976584;28;20371;-73
2023/05/01 04:00:55;;;;;;;;;;;;;;;9.89;100.00;101466.44;4978301;28;19937;-73
2023/05/01 04:03:20;;;;;;;;;;;;;;;9.81;100.00;101459.81;4984600;28;19977;-72
2023/05/01 04:05:46;;;;;;;;;;;;;;;9.76;100.00;101465.50;4981376;28;20781;-72
2023/05/01 04:08:11;;;;;;;;;;;;;;;9.71;100.00;101471.16;4977493;28;20479;-73
2023/05/01 04:10:36;;;;;;;;;;;;;;;9.56;100.00;101470.31;4979415;28;20361;-72
2023/05/01 04:13:01;;;;;;;;;;;;;;;9.55;100.00;101463.25;4995852;28;19928;-72
2023/05/01 04:15:27;;;;;;;;;;;;;;;9.53;100.00;101462.47;4993891;28;19969;-72
2023/05/01 04:17:54;;;;;;;;;;;;;;;9.50;100.00;101468.03;4971507;28;19922;-72
2023/05/01 04:20:19;;;;;;;;;;;;;;;9.48;100.00;101467.25;4989879;28;20404;-73
2023/05/01 04:22:45;;;;;;;;;;;;;;;9.53;100.00;101467.84;4976766;28;19921;-73
2023/05/01 04:25:10;;;;;;;;;;;;;;;9.53;100.00;101467.84;4980157;28;19969;-72
2023/05/01 04:27:35;;;;;;;;;;;;;;;9.58;100.00;101460.38;4980415;28;19922;-72
2023/05/01 04:30:01;;;;;;;;;;;;;;;9.60;100.00;101461.13;4981599;28;20407;-72
2023/05/01 04:32:26;;;;;;;;;;;;;;;9.58;100.00;101459.50;4985939;28;19964;-73
2023/05/01 04:34:52;;;;;;;;;;;;;;;9.63;100.00;101457.38;4971230;28;19965;-72
2023/05/01 04:37:17;;;;;;;;;;;;;;;9.66;100.00;101451.81;4986427;28;19961;-72
2023/05/01 04:39:43;;;;;;;;;;;;;;;9.64;100.00;101455.56;4978141;28;20423;-72
2023/05/01 04:42:08;;;;;;;;;;;;;;;9.61;100.00;101459.28;4975823;28;19929;-72
2023/05/01 04:44:35;;;;;;;;;;;;;;;9.62;100.00;101454.81;4974940;28;19964;-73
2023/05/01 04:47:04;;;;;;;;;;;;;;;9.62;100.00;101452.97;4989105;28;19930;-72
2023/05/01 04:49:30;;;;;;;;;;;;;;;9.68;100.00;101463.31;4992094;28;20012;-72
2023/05/01 04:51:55;;;;;;;;;;;;;;;9.73;100.00;101458.53;4976842;28;20170;-73
2023/05/01 04:54:21;;;;;;;;;;;;;;;9.77;100.00;101453.81;4978327;28;19960;-72
2023/05/01 04:56:46;;;;;;;;;;;;;;;9.84;100.00;101448.91;4984554;28;20004;-72
2023/05/01 04:59:11;;;;;;;;;;;;;;;9.83;100.00;101456.09;4974235;28;19922;-73
2023/05/01 05:01:36;;;;;;;;;;;;;;;9.90;100.00;101452.06;4978698;28;19926;-73
2023/05/01 05:04:02;;;;;;;;;;;;;;;9.94;100.00;101452.72;4977245;28;20426;-72
2023/05/01 05:06:27;;;;;;;;;;;;;;;10.00;100.00;101451.44;4992086;28;19968;-72
2023/05/01 05:08:52;;;;;;;;;;;;;;;10.07;100.00;101452.78;4976696;28;20024;-73
2023/05/01 05:11:18;;;;;;;;;;;;;;;10.14;100.00;101455.91;4986821;28;20012;-72
2023/05/01 05:13:43;;;;;;;;;;;;;;;10.19;100.00;101457.34;4976985;28;19925;-72
2023/05/01 05:16:08;;;;;;;;;;;;;;;10.23;100.00;101457.09;4991496;28;20378;-72
2023/05/01 05:18:34;;;;;;;;;;;;;;;10.23;100.00;101451.75;4987775;28;20283;-72
2023/05/01 05:21:01;;;;;;;;;;;;;;;10.27;100.00;101455.94;4975525;28;20012;-72
2023/05/01 05:23:27;;;;;;;;;;;;;;;10.24;100.00;101461.50;4968393;28;20223;-72
2023/05/01 05:25:52;;;;;;;;;;;;;;;10.17;100.00;101461.06;4984224;28;19922;-72
2023/05/01 05:28:17;;;;;;;;;;;;;;;10.22;100.00;101461.63;4972555;28;20021;-72
2023/05/01 05:30:43;;;;;;;;;;;;;;;10.09;100.00;101476.81;4979172;28;19928;-72
2023/05/01 05:33:08;;;;;;;;;;;;;;;10.05;100.00;101484.19;4977140;28;19944;-72
2023/05/01 05:35:33;;;;;;;;;;;;;;;10.07;100.00;101476.91;4978321;28;20387;-72
2023/05/01 05:37:58;;;;;;;;;;;;;;;10.11;100.00;101462.34;4977181;28;20395;-72
2023/05/01 05:40:24;;;;;;;;;;;;;;;10.19;100.00;101454.66;4978423;28;20388;-72
2023/05/01 05:42:49;;;;;;;;;;;;;;;10.19;100.00;101460.03;4972790;28;20353;-72
2023/05/01 05:45:15;;;;;;;;;;;;;;;10.25;100.00;101460.56;4991643;28;20168;-73
2023/05/01 05:47:40;;;;;;;;;;;;;;;10.35;100.00;101457.16;4975688;28;19925;-72
2023/05/01 05:50:06;;;;;;;;;;;;;;;10.40;100.00;101448.84;4984329;28;20384;-72
2023/05/01 05:52:31;;;;;;;;;;;;;;;10.39;100.00;101451.59;4978206;28;20012;-72
2023/05/01 05:54:56;;;;;;;;;;;;;;;10.45;100.00;101454.75;4982747;28;20012;-72
2023/05/01 05:57:21;;;;;;;;;;;;;;;10.49;100.00;101453.56;4977022;28;19926;-72
2023/05/01 05:59:47;;;;;;;;;;;;;;;10.56;100.00;101458.53;4981168;28;19921;-72
2023/05/01 06:02:12;;;;;;;;;;;;;;;10.63;100.00;101449.09;4986819;28;19994;-72
2023/05/01 06:04:37;;;;;;;;;;;;;;;10.70;100.00;101452.22;4979104;28;19925;-72
2023/05/01 06:07:04;;;;;;;;;;;;;;;10.66;100.00;101448.88;4976520;28;20606;-72
2023/05/01 06:09:29;;;;;;;;;;;;;;;10.72;100.00;101444.91;4983457;28;19922;-72
2023/05/01 06:11:55;;;;;;;;;;;;;;;10.73;100.00;101443.94;4978914;28;19926;-72
2023/05/01 06:14:20;;;;;;;;;;;;;;;10.73;100.00;101447.47;4981319;28;19922;-72
2023/05/01 06:16:45;;;;;;;;;;;;;;;10.84;100.00;101445.88;4976566;28;20430;-72
2023/05/01 06:19:11;;;;;;;;;;;;;;;10.91;100.00;101439.97;4975791;28;20387;-72
2023/05/01 06:21:36;;;;;;;;;;;;;;;10.99;100.00;101447.50;4977052;28;19933;-72
2023/05/01 06:24:01;;;;;;;;;;;;;;;11.03;100.00;101440.94;4975464;28;19922;-72
2023/05/01 06:26:27;;;;;;;;;;;;;;;11.12;100.00;101441.28;4975464;28;19965;-72
2023/05/01 06:28:53;;;;;;;;;;;;;;;11.12;100.00;101441.28;4989095;28;19926;-72
2023/05/01 06:31:18;;;;;;;;;;;;;;;11.19;100.00;101445.25;4975297;28;19944;-72
2023/05/01 06:33:43;;;;;;;;;;;;;;;11.16;100.00;101440.94;4979942;28;19921;-72
2023/05/01 06:36:09;;;;;;;;;;;;;;;11.21;100.00;101435.25;4975662;28;20256;-72
2023/05/01 06:38:34;;;;;;;;;;;;;;;11.25;100.00;101444.81;4975644;28;19996;-72
2023/05/01 06:40:59;;;;;;;;;;;;;;;11.35;100.00;101445.03;4960244;23;20346;-72
2023/05/01 06:43:29;;;;;;;;;;;;;;;11.40;100.00;101446.41;4936026;28;19922;-72
2023/05/01 06:45:55;;;;;;;;;;;;;;;11.55;100.00;101443.56;4921476;28;19922;-72
2023/05/01 06:48:20;;;;;;;;;;;;;;;11.69;100.00;101435.38;4938803;28;19986;-72
2023/05/01 06:50:45;;;;;;;;;;;;;;;11.78;100.00;101436.53;4936370;28;19966;-72
2023/05/01 06:53:11;;;;;;;;;;;;;;;11.91;100.00;101436.47;4938493;28;20318;-73
2023/05/01 06:55:36;;;;;;;;;;;;;;;12.03;100.00;101434.72;4930623;28;19923;-72
2023/05/01 06:58:01;;;;;;;;;;;;;;;12.19;100.00;101426.38;4935506;28;20009;-72
2023/05/01 07:00:26;;;;;;;;;;;;;;;12.18;100.00;101430.03;4935090;28;20009;-72
2023/05/01 07:02:52;;;;;;;;;;;;;;;12.25;100.00;101433.13;4937386;28;19918;-73
2023/05/01 07:05:17;;;;;;;;;;;;;;;12.25;100.00;101430.41;4931740;28;20107;-72
2023/05/01 07:07:42;;;;;;;;;;;;;;;12.33;100.00;101435.22;4933574;28;19929;-73
2023/05/01 07:10:08;;;;;;;;;;;;;;;12.36;100.00;101432.28;4933767;28;19929;-72
2023/05/01 07:12:33;;;;;;;;;;;;;;;12.64;100.00;101428.38;4933999;28;19923;-73
2023/05/01 07:14:58;;;;;;;;;;;;;;;12.95;100.00;101434.06;4920835;28;19929;-72
2023/05/01 07:17:24;;;;;;;;;;;;;;;13.22;100.00;101434.69;4932532;28;20917;-72
2023/05/01 07:19:49;;;;;;;;;;;;;;;13.33;100.00;101434.69;4934424;28;20013;-72
2023/05/01 07:22:14;;;;;;;;;;;;;;;13.41;100.00;101434.09;4931245;28;19941;-72
2023/05/01 07:24:40;;;;;;;;;;;;;;;13.38;100.00;101431.63;4934496;28;20361;-72
2023/05/01 07:27:05;;;;;;;;;;;;;;;13.44;93.40;101434.69;4935673;28;19929;-72
2023/05/01 07:29:30;;;;;;;;;;;;;;;13.62;98.38;101426.97;4929715;28;19970;-72
2023/05/01 07:31:55;;;;;;;;;;;;;;;13.71;99.45;101428.03;4934272;28;20017;-72
2023/05/01 07:34:20;;;;;;;;;;;;;;;13.64;93.26;101434.91;4917288;29;19945;-73
2023/05/01 07:36:46;;;;;;;;;;;;;;;13.65;92.15;101426.72;4936027;28;19922;-72
2023/05/01 07:39:12;;;;;;;;;;;;;;;13.92;92.45;101421.84;4931575;28;19926;-73
2023/05/01 07:41:37;;;;;;;;;;;;;;;14.09;86.50;101418.63;4934360;28;20127;-72
2023/05/01 07:44:03;;;;;;;;;;;;;;;14.23;95.32;101427.38;4930346;28;20353;-73
2023/05/01 07:46:28;;;;;;;;;;;;;;;14.44;84.74;101421.16;4937297;28;20336;-73
2023/05/01 07:48:53;;;;;;;;;;;;;;;14.68;88.57;101424.50;4917554;28;20445;-72
2023/05/01 07:51:18;;;;;;;;;;;;;;;14.87;82.47;101395.88;4935523;28;19922;-73
2023/05/01 07:53:45;;;;;;;;;;;;;;;15.08;84.62;101416.59;4926095;28;19923;-72
2023/05/01 07:56:10;;;;;;;;;;;;;;;15.01;83.90;101419.00;4921818;29;20305;-73
2023/05/01 07:58:36;;;;;;;;;;;;;;;15.18;79.75;101424.75;4934980;28;19922;-72
2023/05/01 08:01:01;;;;;;;;;;;;;;;15.27;82.41;101430.19;4940535;28;19927;-73
2023/05/01 08:03:27;;;;;;;;;;;;;;;15.43;83.61;101421.59;4938623;28;19934;-72
2023/05/01 08:05:52;;;;;;;;;;;;;;;15.53;87.97;101423.47;4938282;28;20545;-72
2023/05/01 08:08:20;;;;;;;;;;;;;;;15.56;79.48;101418.63;4934015;28;20845;-72
2023/05/01 08:10:45;;;;;;;;;;;;;;;15.21;78.96;101419.94;4936169;28;19950;-72
2023/05/01 08:13:10;;;;;;;;;;;;;;;15.34;81.04;101414.31;4921458;29;20046;-73
2023/05/01 08:15:37;;;;;;;;;;;;;;;15.43;85.14;101415.31;4935025;29;20361;-73
2023/05/01 08:18:03;;;;;;;;;;;;;;;15.56;81.49;101418.63;4939060;28;19923;-72
2023/05/01 08:20:28;;;;;;;;;;;;;;;15.66;80.27;101413.25;4934942;28;20040;-72
2023/05/01 08:22:53;;;;;;;;;;;;;;;15.92;83.93;101414.59;4933285;28;20226;-73
2023/05/01 08:25:18;;;;;;;;;;;;;;;15.98;82.41;101414.06;4934639;28;19927;-73
2023/05/01 08:27:43;;;;;;;;;;;;;;;15.66;79.30;101405.13;4921430;29;19958;-72
2023/05/01 08:30:09;;;;;;;;;;;;;;;15.87;84.12;101405.06;4936262;28;20006;-72
2023/05/01 08:32:34;;;;;;;;;;;;;;;16.19;79.54;101406.66;4936327;28;19946;-72
2023/05/01 08:34:59;;;;;;;;;;;;;;;16.41;72.72;101403.78;4922216;29;19923;-72
2023/05/01 08:37:25;;;;;;;;;;;;;;;16.44;68.90;101406.19;4921834;29;20500;-72
2023/05/01 08:39:50;;;;;;;;;;;;;;;16.59;70.46;101407.47;4937091;28;19922;-72
2023/05/01 08:42:16;;;;;;;;;;;;;;;17.12;70.13;101416.06;4936268;28;19950;-73
2023/05/01 08:44:41;;;;;;;;;;;;;;;17.28;66.83;101415.44;4934985;28;19922;-72
2023/05/01 08:47:13;;;;;;;;;;;;;;;17.46;70.04;101417.34;4938513;28;20016;-73
2023/05/01 08:49:40;;;;;;;;;;;;;;;17.21;70.99;101420.59;4922737;29;19969;-72
2023/05/01 08:52:05;;;;;;;;;;;;;;;17.35;66.83;101421.94;4937568;28;19930;-73
2023/05/01 08:54:31;;;;;;;;;;;;;;;17.79;70.77;101415.00;4935074;28;19945;-73
2023/05/01 08:56:56;;;;;;;;;;;;;;;17.95;69.09;101414.31;4937453;28;19926;-73
2023/05/01 08:59:21;;;;;;;;;;;;;;;18.11;63.31;101410.94;4935544;28;19923;-72
2023/05/01 09:01:47;;;;;;;;;;;;;;;17.94;66.24;101412.63;4935376;28;19931;-72
2023/05/01 09:04:13;;;;;;;;;;;;;;;17.98;65.45;101414.03;4936072;28;19973;-73
2023/05/01 09:06:38;;;;;;;;;;;;;;;18.46;67.01;101394.75;4939314;28;19969;-73
2023/05/01 09:09:03;;;;;;;;;;;;;;;18.88;62.99;101399.44;4933762;28;20013;-73
2023/05/01 09:11:28;;;;;;;;;;;;;;;18.87;65.15;101409.50;4921265;29;20103;-72
2023/05/01 09:13:53;;;;;;;;;;;;;;;18.88;63.66;101404.91;4935457;28;20363;-72
2023/05/01 09:16:19;;;;;;;;;;;;;;;19.01;63.28;101402.63;4940279;28;19929;-73
2023/05/01 09:18:45;;;;;;;;;;;;;;;19.28;59.81;101410.75;4936624;28;19922;-72
2023/05/01 09:21:11;;;;;;;;;;;;;;;19.69;60.72;101402.75;4937071;28;19930;-73
2023/05/01 09:23:36;;;;;;;;;;;;;;;19.75;59.40;101406.66;4935543;28;19933;-73
2023/05/01 09:26:05;;;;;;;;;;;;;;;20.15;56.97;101407.78;4936813;28;20330;-74
2023/05/01 09:28:46;;;;;;;;;;;;;;;19.98;57.09;101398.75;4934957;28;20437;-73
2023/05/01 09:31:28;;;;;;;;;;;;;;;20.29;56.06;101399.97;4927128;28;19928;-73
2023/05/01 09:34:00;;;;;;;;;;;;;;;20.55;56.04;101396.19;4935325;28;19926;-73
2023/05/01 09:36:26;;;;;;;;;;;;;;;20.69;58.87;101398.22;4937344;28;20361;-73
2023/05/01 09:38:52;;;;;;;;;;;;;;;20.10;56.01;101399.28;4939281;28;19966;-73
2023/05/01 09:41:17;;;;;;;;;;;;;;;20.23;56.82;101393.31;4936598;28;20025;-73
2023/05/01 09:43:47;;;;;;;;;;;;;;;20.33;57.43;101374.06;4935996;28;19929;-73
2023/05/01 09:46:13;;;;;;;;;;;;;;;20.99;56.42;101387.59;4937762;28;20401;-73
2023/05/01 09:48:38;;;;;;;;;;;;;;;21.20;55.29;101391.63;4935768;28;19933;-73
2023/05/01 09:51:20;;;;;;;;;;;;;;;21.36;55.38;101401.63;4937788;28;20565;-72
2023/05/01 09:53:45;;;;;;;;;;;;;;;21.11;53.65;101401.72;4941405;28;19953;-73
2023/05/01 09:56:10;;;;;;;;;;;;;;;20.70;55.27;101391.72;4936585;28;20005;-73
2023/05/01 09:58:36;;;;;;;;;;;;;;;21.28;57.54;101403.38;4934506;28;19968;-73
2023/05/01 10:01:01;;;;;;;;;;;;;;;21.53;53.98;101403.28;4939848;28;19926;-73
2023/05/01 10:03:27;;;;;;;;;;;;;;;21.60;52.40;101405.25;4907958;28;19965;-73
2023/05/01 10:05:55;;;;;;;;;;;;;;;21.59;52.99;101401.69;4936460;28;20066;-73
2023/05/01 10:08:20;;;;;;;;;;;;;;;22.00;53.82;101398.72;4936576;28;20447;-73
2023/05/01 10:10:53;;;;;;;;;;;;;;;22.20;49.44;101400.13;4935645;28;19927;-72
2023/05/01 10:13:18;;;;;;;;;;;;;;;22.48;48.05;101389.50;4936245;28;20405;-74
2023/05/01 10:15:45;;;;;;;;;;;;;;;22.17;47.42;101398.63;4935235;28;19929;-72
2023/05/01 10:18:10;;;;;;;;;;;;;;;22.30;49.09;101395.28;4929449;28;19923;-73
2023/05/01 10:20:36;;;;;;;;;;;;;;;22.90;46.34;101395.41;4936755;28;19961;-74
2023/05/01 10:23:02;;;;;;;;;;;;;;;23.33;48.36;101389.25;4935934;28;19945;-73
2023/05/01 10:25:27;;;;;;;;;;;;;;;23.51;49.05;101395.22;4930470;28;19923;-73
2023/05/01 10:27:53;;;;;;;;;;;;;;;23.03;46.11;101386.53;4936547;28;19922;-73
2023/05/01 10:30:18;;;;;;;;;;;;;;;23.26;47.07;101380.97;4938014;28;20001;-73
2023/05/01 10:32:43;;;;;;;;;;;;;;;23.34;44.88;101388.22;4936683;28;20388;-74
2023/05/01 10:35:13;;;;;;;;;;;;;;;23.83;45.25;101394.91;4937848;28;19972;-73
2023/05/01 10:37:48;;;;;;;;;;;;;;;23.70;45.31;101389.31;4924507;28;20437;-73
2023/05/01 10:40:32;;;;;;;;;;;;;;;23.31;46.26;101397.69;4920642;28;19981;-73
2023/05/01 10:43:16;;;;;;;;;;;;;;;23.26;44.67;101394.66;4939731;28;19930;-73
2023/05/01 10:45:42;;;;;;;;;;;;;;;22.74;47.65;101397.28;4929609;28;19930;-74
2023/05/01 10:48:07;;;;;;;;;;;;;;;22.95;46.72;101394.84;4904537;29;20285;-73
2023/05/01 10:50:33;;;;;;;;;;;;;;;22.64;49.04;101398.59;4929121;28;19958;-73
2023/05/01 10:53:14;;;;;;;;;;;;;;;22.67;47.31;101388.09;4941091;28;20025;-73
2023/05/01 10:55:46;;;;;;;;;;;;;;;23.26;47.30;101391.94;4938661;28;20095;-73
2023/05/01 10:58:12;;;;;;;;;;;;;;;23.41;46.35;101386.44;4941158;28;19961;-73
2023/05/01 11:00:38;;;;;;;;;;;;;;;23.41;46.50;101391.91;4935930;28;20067;-73
2023/05/01 11:03:21;;;;;;;;;;;;;;;22.90;47.22;101393.50;4945637;28;19926;-74
2023/05/01 11:06:04;;;;;;;;;;;;;;;22.47;47.31;101383.16;4939087;28;20140;-74
2023/05/01 11:08:36;;;;;;;;;;;;;;;22.42;48.77;101387.47;4935317;28;19929;-73
2023/05/01 11:11:20;;;;;;;;;;;;;;;22.22;47.56;101387.13;4936956;28;19950;-74
2023/05/01 11:14:04;;;;;;;;;;;;;;;22.19;48.45;101385.63;4935601;28;19947;-73
2023/05/01 11:16:32;;;;;;;;;;;;;;;21.77;47.67;101386.94;4935660;28;20441;-73
2023/05/01 11:18:58;;;;;;;;;;;;;;;22.01;48.82;101385.91;4933815;28;20003;-74
2023/05/01 11:21:31;;;;;;;;;;;;;;;21.65;49.34;101391.94;4938007;28;19926;-73
2023/05/01 11:23:56;;;;;;;;;;;;;;;21.98;48.88;101389.84;4937478;28;19922;-72
2023/05/01 11:26:22;;;;;;;;;;;;;;;23.06;49.18;101392.47;4931483;28;20267;-73
2023/05/01 11:28:47;;;;;;;;;;;;;;;23.76;49.33;101383.03;4935176;28;20305;-73
2023/05/01 11:31:17;;;;;;;;;;;;;;;23.42;46.24;101384.56;4937545;28;19923;-73
2023/05/01 11:33:42;;;;;;;;;;;;;;;23.69;46.49;101393.09;4940596;28;20102;-73
2023/05/01 11:36:07;;;;;;;;;;;;;;;23.51;47.46;101377.91;4935255;28;20177;-73
2023/05/01 11:38:33;;;;;;;;;;;;;;;24.36;43.51;101389.16;4940701;28;19937;-74
2023/05/01 11:40:59;;;;;;;;;;;;;;;24.78;47.13;101378.28;4940616;28;19926;-74
2023/05/01 11:43:25;;;;;;;;;;;;;;;25.62;45.46;101386.53;4938451;28;20338;-73
2023/05/01 11:45:51;;;;;;;;;;;;;;;25.50;42.64;101385.44;4934607;28;19931;-74
2023/05/01 11:48:16;;;;;;;;;;;;;;;25.34;39.72;101384.69;4940696;28;20009;-74
2023/05/01 11:50:41;;;;;;;;;;;;;;;25.82;40.76;101386.59;4940911;28;19966;-73
2023/05/01 11:53:10;;;;;;;;;;;;;;;26.38;39.33;101378.19;4939003;28;19969;-73
2023/05/01 11:55:37;;;;;;;;;;;;;;;26.34;40.73;101378.66;4925829;28;20309;-74
2023/05/01 11:58:03;;;;;;;;;;;;;;;26.29;38.85;101383.94;4939048;28;20280;-74
2023/05/01 12:00:28;;;;;;;;;;;;;;;25.71;37.99;101389.94;4936087;28;19926;-73
2023/05/01 12:02:56;;;;;;;;;;;;;;;25.92;41.51;101386.19;4934648;28;19922;-74
2023/05/01 12:05:22;;;;;;;;;;;;;;;25.94;40.92;101384.06;4940664;28;19949;-73
2023/05/01 12:07:47;;;;;;;;;;;;;;;25.24;43.05;101382.34;4935030;28;19922;-73
2023/05/01 12:10:12;;;;;;;;;;;;;;;25.61;43.18;101384.84;4938269;28;20036;-73
2023/05/01 12:12:37;;;;;;;;;;;;;;;24.51;43.75;101385.44;4936361;28;20605;-74
2023/05/01 12:15:03;;;;;;;;;;;;;;;24.36;44.02;101386.41;4940907;28;20339;-73
2023/05/01 12:17:28;;;;;;;;;;;;;;;24.69;43.79;101388.53;4937767;28;20029;-72
2023/05/01 12:19:53;;;;;;;;;;;;;;;25.17;43.07;101392.44;4938864;28;20021;-74
2023/05/01 12:22:19;;;;;;;;;;;;;;;24.61;44.39;101387.84;4938628;28;19930;-74
2023/05/01 12:24:53;;;;;;;;;;;;;;;23.81;42.52;101395.13;4936704;28;19930;-74
2023/05/01 12:27:19;;;;;;;;;;;;;;;24.54;43.20;101394.13;4936405;28;20283;-73
2023/05/01 12:29:46;;;;;;;;;;;;;;;25.38;42.68;101396.16;4935421;28;19930;-73